Peotone Weather
Station Historical Data
Daily Summary for September 13, 2017 Units:  Both    English   Metric
« Previous Day
Next Day »
Daily Weekly Monthly Yearly Custom
  High: Low: Average:
Temperature: 67.1 °F /  19.5 °C 59.3 °F /  15.2 °C 62.9 °F /  17.2 °C
Dew Point: 63.4 °F /  17.4 °C 56.2 °F /  13.4 °C 60.3 °F /  15.7 °C
Humidity: 95% 85% 91%
Wind Speed: 5.8mph /  9.3km/h - 1mph /  1.6km/h
Wind Gust: 9.2mph /  14.8km/h - -
Wind- - ENE
Pressure: 29.81 in /  1009.4 hPa 29.73 in /  1006.7 hPa -
Precipitation: 0.07 in /  1.78 mm    
Historical Graphs
 
 
Tabular Data for September 13, 2017
Time Temperature Dew Point Pressure Wind Wind Speed Wind Gust Humidity Rainfall Rate (Hourly) solar Conditions
00:00 61.2 °F /  16.2 °C 59.2 °F /  15.1 °C 29.81in /  1009.4hPa NE 3.5mph /  5.6km/h 4.6mph /  7.4km/h 93% 0.00in /  0mm 0.00 W/m2
00:01 61.2 °F /  16.2 °C 59.2 °F /  15.1 °C 29.81in /  1009.4hPa NE 2.3mph /  3.7km/h 4.6mph /  7.4km/h 93% 0.00in /  0mm 0.00 W/m2
00:05 61.3 °F /  16.3 °C 59.3 °F /  15.2 °C 29.80in /  1009hPa NE 1.1mph /  1.8km/h 4.6mph /  7.4km/h 93% 0.00in /  0mm 0.00 W/m2
00:06 61.3 °F /  16.3 °C 59.3 °F /  15.2 °C 29.80in /  1009hPa NE 3.4mph /  5.5km/h 4.6mph /  7.4km/h 93% 0.00in /  0mm 0.00 W/m2
00:10 61.2 °F /  16.2 °C 59.2 °F /  15.1 °C 29.80in /  1009hPa NE 2.3mph /  3.7km/h 5.8mph /  9.3km/h 93% 0.00in /  0mm 0.00 W/m2
00:11 61.3 °F /  16.3 °C 59.3 °F /  15.2 °C 29.80in /  1009hPa NE 2.3mph /  3.7km/h 5.8mph /  9.3km/h 93% 0.00in /  0mm 0.00 W/m2
00:15 61.1 °F /  16.2 °C 59.1 °F /  15.1 °C 29.80in /  1009hPa Calm   4.6mph /  7.4km/h 93% 0.00in /  0mm 0.00 W/m2
00:20 60.9 °F /  16.1 °C 58.9 °F /  14.9 °C 29.80in /  1009hPa NNE 2.3mph /  3.7km/h 5.8mph /  9.3km/h 93% 0.00in /  0mm 0.00 W/m2
00:21 61.0 °F /  16.1 °C 59.0 °F /  15 °C 29.80in /  1009hPa NNE 1.1mph /  1.8km/h 5.8mph /  9.3km/h 93% 0.00in /  0mm 0.00 W/m2
00:25 60.9 °F /  16.1 °C 58.9 °F /  14.9 °C 29.80in /  1009hPa NE 4.6mph /  7.4km/h 4.6mph /  7.4km/h 93% 0.00in /  0mm 0.00 W/m2
00:26 60.9 °F /  16.1 °C 58.9 °F /  14.9 °C 29.80in /  1009hPa NE 1.1mph /  1.8km/h 4.6mph /  7.4km/h 93% 0.00in /  0mm 0.00 W/m2
00:30 60.9 °F /  16.1 °C 58.9 °F /  14.9 °C 29.80in /  1009hPa Calm   5.8mph /  9.3km/h 93% 0.00in /  0mm 0.00 W/m2
00:31 60.9 °F /  16.1 °C 58.9 °F /  14.9 °C 29.80in /  1009hPa Calm   5.8mph /  9.3km/h 93% 0.00in /  0mm 0.00 W/m2
00:35 60.8 °F /  16 °C 59.1 °F /  15.1 °C 29.80in /  1009hPa Calm   4.6mph /  7.4km/h 94% 0.00in /  0mm 0.00 W/m2
00:36 60.8 °F /  16 °C 59.1 °F /  15.1 °C 29.80in /  1009hPa Calm   4.6mph /  7.4km/h 94% 0.00in /  0mm 0.00 W/m2
00:40 60.8 °F /  16 °C 59.1 °F /  15.1 °C 29.79in /  1008.7hPa NNE 5.8mph /  9.3km/h 5.8mph /  9.3km/h 94% 0.00in /  0mm 0.00 W/m2
00:41 60.8 °F /  16 °C 59.1 °F /  15.1 °C 29.79in /  1008.7hPa NNE 1.1mph /  1.8km/h 4.6mph /  7.4km/h 94% 0.00in /  0mm 0.00 W/m2
00:45 60.7 °F /  15.9 °C 59.0 °F /  15 °C 29.80in /  1009hPa ENE 4.6mph /  7.4km/h 8.1mph /  13km/h 94% 0.00in /  0mm 0.00 W/m2
00:46 60.8 °F /  16 °C 59.1 °F /  15.1 °C 29.80in /  1009hPa NE 4.6mph /  7.4km/h 5.8mph /  9.3km/h 94% 0.00in /  0mm 0.00 W/m2
00:50 60.9 °F /  16.1 °C 59.2 °F /  15.1 °C 29.80in /  1009hPa NE 2.3mph /  3.7km/h 4.6mph /  7.4km/h 94% 0.00in /  0mm 0.00 W/m2
00:51 60.9 °F /  16.1 °C 59.2 °F /  15.1 °C 29.80in /  1009hPa NE 2.3mph /  3.7km/h 4.6mph /  7.4km/h 94% 0.00in /  0mm 0.00 W/m2
00:55 60.9 °F /  16.1 °C 59.2 °F /  15.1 °C 29.80in /  1009hPa NE 3.5mph /  5.6km/h 5.8mph /  9.3km/h 94% 0.00in /  0mm 0.00 W/m2
00:56 60.9 °F /  16.1 °C 59.2 °F /  15.1 °C 29.80in /  1009hPa NE 3.4mph /  5.5km/h 5.8mph /  9.3km/h 94% 0.00in /  0mm 0.00 W/m2
01:00 60.8 °F /  16 °C 59.1 °F /  15.1 °C 29.79in /  1008.7hPa Calm   5.8mph /  9.3km/h 94% 0.00in /  0mm 0.00 W/m2
01:01 60.8 °F /  16 °C 59.1 °F /  15.1 °C 29.79in /  1008.7hPa Calm   5.8mph /  9.3km/h 94% 0.00in /  0mm 0.00 W/m2
01:05 60.7 °F /  15.9 °C 59.0 °F /  15 °C 29.79in /  1008.7hPa NE 3.5mph /  5.6km/h 5.8mph /  9.3km/h 94% 0.00in /  0mm 0.00 W/m2
01:06 60.7 °F /  15.9 °C 59.0 °F /  15 °C 29.79in /  1008.7hPa NE 3.4mph /  5.5km/h 5.8mph /  9.3km/h 94% 0.00in /  0mm 0.00 W/m2
01:10 60.7 °F /  15.9 °C 59.0 °F /  15 °C 29.79in /  1008.7hPa NE 3.5mph /  5.6km/h 5.8mph /  9.3km/h 94% 0.00in /  0mm 0.00 W/m2
01:11 60.7 °F /  15.9 °C 59.0 °F /  15 °C 29.79in /  1008.7hPa NE 1.1mph /  1.8km/h 3.4mph /  5.5km/h 94% 0.00in /  0mm 0.00 W/m2
01:15 60.5 °F /  15.8 °C 58.8 °F /  14.9 °C 29.79in /  1008.7hPa Calm   3.5mph /  5.6km/h 94% 0.00in /  0mm 0.00 W/m2
01:16 60.5 °F /  15.8 °C 58.8 °F /  14.9 °C 29.79in /  1008.7hPa Calm     94% 0.00in /  0mm 0.00 W/m2
01:20 60.2 °F /  15.7 °C 58.5 °F /  14.7 °C 29.79in /  1008.7hPa Calm   2.3mph /  3.7km/h 94% 0.00in /  0mm 0.00 W/m2
01:21 60.2 °F /  15.7 °C 58.5 °F /  14.7 °C 29.79in /  1008.7hPa NE 1.1mph /  1.8km/h 1.1mph /  1.8km/h 94% 0.00in /  0mm 0.00 W/m2
01:25 60.1 °F /  15.6 °C 58.4 °F /  14.7 °C 29.79in /  1008.7hPa NE 2.3mph /  3.7km/h 4.6mph /  7.4km/h 94% 0.00in /  0mm 0.00 W/m2
01:26 60.0 °F /  15.6 °C 58.3 °F /  14.6 °C 29.79in /  1008.7hPa NE 2.3mph /  3.7km/h 3.4mph /  5.5km/h 94% 0.00in /  0mm 0.00 W/m2
01:30 60.0 °F /  15.6 °C 58.3 °F /  14.6 °C 29.78in /  1008.4hPa NE 2.3mph /  3.7km/h 4.6mph /  7.4km/h 94% 0.00in /  0mm 0.00 W/m2
01:31 60.0 °F /  15.6 °C 58.3 °F /  14.6 °C 29.78in /  1008.4hPa NE 1.1mph /  1.8km/h 2.3mph /  3.7km/h 94% 0.00in /  0mm 0.00 W/m2
01:35 59.9 °F /  15.5 °C 58.2 °F /  14.6 °C 29.78in /  1008.4hPa Calm   2.3mph /  3.7km/h 94% 0.00in /  0mm 0.00 W/m2
01:36 59.9 °F /  15.5 °C 58.2 °F /  14.6 °C 29.78in /  1008.4hPa Calm     94% 0.00in /  0mm 0.00 W/m2
01:40 59.7 °F /  15.4 °C 58.0 °F /  14.4 °C 29.78in /  1008.4hPa Calm   3.5mph /  5.6km/h 94% 0.00in /  0mm 0.00 W/m2
01:41 59.7 °F /  15.4 °C 58.0 °F /  14.4 °C 29.78in /  1008.4hPa Calm     94% 0.00in /  0mm 0.00 W/m2
01:45 59.8 °F /  15.4 °C 58.1 °F /  14.5 °C 29.78in /  1008.4hPa NE 2.3mph /  3.7km/h 4.6mph /  7.4km/h 94% 0.00in /  0mm 0.00 W/m2
01:46 59.9 °F /  15.5 °C 58.2 °F /  14.6 °C 29.78in /  1008.4hPa NE 3.4mph /  5.5km/h 3.4mph /  5.5km/h 94% 0.00in /  0mm 0.00 W/m2
01:50 60.2 °F /  15.7 °C 58.8 °F /  14.9 °C 29.78in /  1008.4hPa NE 2.3mph /  3.7km/h 3.5mph /  5.6km/h 95% 0.00in /  0mm 0.00 W/m2
01:51 60.2 °F /  15.7 °C 58.8 °F /  14.9 °C 29.78in /  1008.4hPa NE 1.1mph /  1.8km/h 2.3mph /  3.7km/h 95% 0.00in /  0mm 0.00 W/m2
01:55 60.2 °F /  15.7 °C 58.5 °F /  14.7 °C 29.78in /  1008.4hPa NE 1.1mph /  1.8km/h 3.5mph /  5.6km/h 94% 0.00in /  0mm 0.00 W/m2
01:56 60.3 °F /  15.7 °C 58.6 °F /  14.8 °C 29.78in /  1008.4hPa NE 1.1mph /  1.8km/h 2.3mph /  3.7km/h 94% 0.00in /  0mm 0.00 W/m2
02:00 60.4 °F /  15.8 °C 58.7 °F /  14.8 °C 29.78in /  1008.4hPa ENE 1.1mph /  1.8km/h 5.8mph /  9.3km/h 94% 0.00in /  0mm 0.00 W/m2
02:01 60.4 °F /  15.8 °C 58.7 °F /  14.8 °C 29.78in /  1008.4hPa ENE 1.1mph /  1.8km/h 1.1mph /  1.8km/h 94% 0.00in /  0mm 0.00 W/m2
02:05 60.4 °F /  15.8 °C 58.7 °F /  14.8 °C 29.78in /  1008.4hPa NE 1.1mph /  1.8km/h 5.8mph /  9.3km/h 94% 0.00in /  0mm 0.00 W/m2
02:06 60.4 °F /  15.8 °C 58.7 °F /  14.8 °C 29.78in /  1008.4hPa NE 2.3mph /  3.7km/h 2.3mph /  3.7km/h 94% 0.00in /  0mm 0.00 W/m2
02:10 60.4 °F /  15.8 °C 58.4 °F /  14.7 °C 29.77in /  1008hPa ENE 2.3mph /  3.7km/h 4.6mph /  7.4km/h 93% 0.00in /  0mm 0.00 W/m2
02:11 60.4 °F /  15.8 °C 58.4 °F /  14.7 °C 29.77in /  1008hPa ENE 1.1mph /  1.8km/h 2.3mph /  3.7km/h 93% 0.00in /  0mm 0.00 W/m2
02:15 60.4 °F /  15.8 °C 58.1 °F /  14.5 °C 29.77in /  1008hPa ENE 1.1mph /  1.8km/h 2.3mph /  3.7km/h 92% 0.00in /  0mm 0.00 W/m2
02:16 60.4 °F /  15.8 °C 58.1 °F /  14.5 °C 29.77in /  1008hPa Calm   1.1mph /  1.8km/h 92% 0.00in /  0mm 0.00 W/m2
02:20 60.2 °F /  15.7 °C 57.9 °F /  14.4 °C 29.77in /  1008hPa Calm   3.5mph /  5.6km/h 92% 0.00in /  0mm 0.00 W/m2
02:22 60.2 °F /  15.7 °C 57.9 °F /  14.4 °C 29.77in /  1008hPa ENE 1.1mph /  1.8km/h 1.1mph /  1.8km/h 92% 0.00in /  0mm 0.00 W/m2
02:25 60.2 °F /  15.7 °C 57.6 °F /  14.2 °C 29.77in /  1008hPa ENE 2.3mph /  3.7km/h 4.6mph /  7.4km/h 91% 0.00in /  0mm 0.00 W/m2
02:27 60.2 °F /  15.7 °C 57.6 °F /  14.2 °C 29.77in /  1008hPa ENE 2.3mph /  3.7km/h 4.6mph /  7.4km/h 91% 0.00in /  0mm 0.00 W/m2
02:30 60.2 °F /  15.7 °C 57.6 °F /  14.2 °C 29.76in /  1007.7hPa ENE 2.3mph /  3.7km/h 4.6mph /  7.4km/h 91% 0.00in /  0mm 0.00 W/m2
02:32 60.1 °F /  15.6 °C 57.5 °F /  14.2 °C 29.76in /  1007.7hPa ENE 2.3mph /  3.7km/h 4.6mph /  7.4km/h 91% 0.00in /  0mm 0.00 W/m2
02:35 59.8 °F /  15.4 °C 57.2 °F /  14 °C 29.76in /  1007.7hPa Calm   5.8mph /  9.3km/h 91% 0.00in /  0mm 0.00 W/m2
02:37 59.8 °F /  15.4 °C 57.2 °F /  14 °C 29.76in /  1007.7hPa Calm   1.1mph /  1.8km/h 91% 0.00in /  0mm 0.00 W/m2
02:40 59.8 °F /  15.4 °C 57.2 °F /  14 °C 29.76in /  1007.7hPa Calm   4.6mph /  7.4km/h 91% 0.00in /  0mm 0.00 W/m2
02:42 59.8 °F /  15.4 °C 57.2 °F /  14 °C 29.76in /  1007.7hPa Calm     91% 0.00in /  0mm 0.00 W/m2
02:45 59.6 °F /  15.3 °C 57.0 °F /  13.9 °C 29.76in /  1007.7hPa NE 2.3mph /  3.7km/h 3.5mph /  5.6km/h 91% 0.00in /  0mm 0.00 W/m2
02:47 59.6 °F /  15.3 °C 57.0 °F /  13.9 °C 29.76in /  1007.7hPa Calm   2.3mph /  3.7km/h 91% 0.00in /  0mm 0.00 W/m2
02:50 59.5 °F /  15.3 °C 56.9 °F /  13.8 °C 29.76in /  1007.7hPa NE 1.1mph /  1.8km/h 3.5mph /  5.6km/h 91% 0.00in /  0mm 0.00 W/m2
02:52 59.4 °F /  15.2 °C 56.8 °F /  13.8 °C 29.76in /  1007.7hPa Calm   1.1mph /  1.8km/h 91% 0.00in /  0mm 0.00 W/m2
02:55 59.3 °F /  15.2 °C 56.7 °F /  13.7 °C 29.76in /  1007.7hPa NE 1.1mph /  1.8km/h 3.5mph /  5.6km/h 91% 0.00in /  0mm 0.00 W/m2
02:57 59.3 °F /  15.2 °C 56.7 °F /  13.7 °C 29.76in /  1007.7hPa Calm   2.3mph /  3.7km/h 91% 0.00in /  0mm 0.00 W/m2
03:01 59.3 °F /  15.2 °C 56.7 °F /  13.7 °C 29.76in /  1007.7hPa Calm   1.1mph /  1.8km/h 91% 0.00in /  0mm 0.00 W/m2
03:07 59.5 °F /  15.3 °C 56.6 °F /  13.7 °C 29.76in /  1007.7hPa NE 1.1mph /  1.8km/h 2.3mph /  3.7km/h 90% 0.00in /  0mm 0.00 W/m2
03:12 59.6 °F /  15.3 °C 56.4 °F /  13.6 °C 29.76in /  1007.7hPa Calm     89% 0.00in /  0mm 0.00 W/m2
03:13 59.6 °F /  15.3 °C 56.4 °F /  13.6 °C 29.76in /  1007.7hPa NE 1.1mph /  1.8km/h 3.4mph /  5.5km/h 89% 0.00in /  0mm 0.00 W/m2
03:18 59.6 °F /  15.3 °C 56.4 °F /  13.6 °C 29.76in /  1007.7hPa NE 1.1mph /  1.8km/h 3.4mph /  5.5km/h 89% 0.00in /  0mm 0.00 W/m2
03:23 59.6 °F /  15.3 °C 56.4 °F /  13.6 °C 29.76in /  1007.7hPa NE 2.3mph /  3.7km/h 6.9mph /  11.1km/h 89% 0.00in /  0mm 0.00 W/m2
03:28 59.7 °F /  15.4 °C 56.5 °F /  13.6 °C 29.76in /  1007.7hPa NE 3.4mph /  5.5km/h 4.6mph /  7.4km/h 89% 0.00in /  0mm 0.00 W/m2
03:33 59.9 °F /  15.5 °C 56.7 °F /  13.7 °C 29.76in /  1007.7hPa Calm   4.6mph /  7.4km/h 89% 0.00in /  0mm 0.00 W/m2
03:38 60.0 °F /  15.6 °C 56.4 °F /  13.6 °C 29.76in /  1007.7hPa NE 3.4mph /  5.5km/h 5.8mph /  9.3km/h 88% 0.00in /  0mm 0.00 W/m2
03:43 60.2 °F /  15.7 °C 56.6 °F /  13.7 °C 29.75in /  1007.3hPa NE 4.6mph /  7.4km/h 4.6mph /  7.4km/h 88% 0.00in /  0mm 0.00 W/m2
03:48 60.4 °F /  15.8 °C 56.5 °F /  13.6 °C 29.76in /  1007.7hPa NE 3.4mph /  5.5km/h 5.8mph /  9.3km/h 87% 0.00in /  0mm 0.00 W/m2
03:54 60.6 °F /  15.9 °C 56.4 °F /  13.6 °C 29.76in /  1007.7hPa NE 1.1mph /  1.8km/h 4.6mph /  7.4km/h 86% 0.00in /  0mm 0.00 W/m2
03:59 60.7 °F /  15.9 °C 56.5 °F /  13.6 °C 29.76in /  1007.7hPa NE 1.1mph /  1.8km/h 4.6mph /  7.4km/h 86% 0.00in /  0mm 0.00 W/m2
04:04 60.6 °F /  15.9 °C 56.7 °F /  13.7 °C 29.76in /  1007.7hPa NE 1.1mph /  1.8km/h 5.8mph /  9.3km/h 87% 0.00in /  0mm 0.00 W/m2
04:09 60.7 °F /  15.9 °C 56.5 °F /  13.6 °C 29.76in /  1007.7hPa NE 3.4mph /  5.5km/h 3.4mph /  5.5km/h 86% 0.00in /  0mm 0.00 W/m2
04:15 60.7 °F /  15.9 °C 56.5 °F /  13.6 °C 29.76in /  1007.7hPa Calm   4.6mph /  7.4km/h 86% 0.00in /  0mm 0.00 W/m2
04:20 60.7 °F /  15.9 °C 56.2 °F /  13.4 °C 29.76in /  1007.7hPa NE 2.3mph /  3.7km/h 5.8mph /  9.3km/h 85% 0.00in /  0mm 0.00 W/m2
04:25 60.9 °F /  16.1 °C 56.4 °F /  13.6 °C 29.76in /  1007.7hPa NE 2.3mph /  3.7km/h 4.6mph /  7.4km/h 85% 0.00in /  0mm 0.00 W/m2
04:31 60.9 °F /  16.1 °C 56.4 °F /  13.6 °C 29.76in /  1007.7hPa Calm   4.6mph /  7.4km/h 85% 0.00in /  0mm 0.00 W/m2
04:36 61.0 °F /  16.1 °C 56.5 °F /  13.6 °C 29.76in /  1007.7hPa NE 2.3mph /  3.7km/h 3.4mph /  5.5km/h 85% 0.00in /  0mm 0.00 W/m2
04:41 60.9 °F /  16.1 °C 56.4 °F /  13.6 °C 29.76in /  1007.7hPa Calm   6.9mph /  11.1km/h 85% 0.00in /  0mm 0.00 W/m2
04:46 61.0 °F /  16.1 °C 56.5 °F /  13.6 °C 29.75in /  1007.3hPa Calm   4.6mph /  7.4km/h 85% 0.00in /  0mm 0.00 W/m2
04:51 61.0 °F /  16.1 °C 56.5 °F /  13.6 °C 29.76in /  1007.7hPa Calm   3.4mph /  5.5km/h 85% 0.00in /  0mm 0.00 W/m2
04:56 61.0 °F /  16.1 °C 56.5 °F /  13.6 °C 29.76in /  1007.7hPa NE 2.3mph /  3.7km/h 6.9mph /  11.1km/h 85% 0.00in /  0mm 0.00 W/m2
05:01 61.0 °F /  16.1 °C 56.5 °F /  13.6 °C 29.76in /  1007.7hPa Calm   4.6mph /  7.4km/h 85% 0.00in /  0mm 0.00 W/m2
05:06 61.1 °F /  16.2 °C 56.6 °F /  13.7 °C 29.76in /  1007.7hPa NE 1.1mph /  1.8km/h 3.4mph /  5.5km/h 85% 0.00in /  0mm 0.00 W/m2
05:11 61.1 °F /  16.2 °C 56.6 °F /  13.7 °C 29.76in /  1007.7hPa NE 4.6mph /  7.4km/h 4.6mph /  7.4km/h 85% 0.00in /  0mm 0.00 W/m2
05:16 61.0 °F /  16.1 °C 56.8 °F /  13.8 °C 29.76in /  1007.7hPa NNE 1.1mph /  1.8km/h 1.1mph /  1.8km/h 86% 0.00in /  0mm 0.00 W/m2
05:21 60.8 °F /  16 °C 56.6 °F /  13.7 °C 29.76in /  1007.7hPa NNE 3.4mph /  5.5km/h 5.8mph /  9.3km/h 86% 0.00in /  0mm 0.00 W/m2
05:27 60.8 °F /  16 °C 57.2 °F /  14 °C 29.76in /  1007.7hPa NE 1.1mph /  1.8km/h 3.4mph /  5.5km/h 88% 0.00in /  0mm 0.00 W/m2
05:32 60.5 °F /  15.8 °C 56.9 °F /  13.8 °C 29.76in /  1007.7hPa NE 3.4mph /  5.5km/h 3.4mph /  5.5km/h 88% 0.01in /  0.25mm 0.00 W/m2
05:37 60.2 °F /  15.7 °C 57.0 °F /  13.9 °C 29.76in /  1007.7hPa NNE 3.4mph /  5.5km/h 3.4mph /  5.5km/h 89% 0.01in /  0.25mm 0.00 W/m2
05:42 60.0 °F /  15.6 °C 57.1 °F /  13.9 °C 29.76in /  1007.7hPa NNE 1.1mph /  1.8km/h 2.3mph /  3.7km/h 90% 0.01in /  0.25mm 0.00 W/m2
05:47 60.0 °F /  15.6 °C 57.1 °F /  13.9 °C 29.76in /  1007.7hPa Calm   1.1mph /  1.8km/h 90% 0.01in /  0.25mm 0.00 W/m2
05:52 59.9 °F /  15.5 °C 57.3 °F /  14.1 °C 29.76in /  1007.7hPa NNE 1.1mph /  1.8km/h 4.6mph /  7.4km/h 91% 0.01in /  0.25mm 0.00 W/m2
05:57 59.8 °F /  15.4 °C 57.2 °F /  14 °C 29.76in /  1007.7hPa NNE 1.1mph /  1.8km/h 1.1mph /  1.8km/h 91% 0.01in /  0.25mm 0.00 W/m2
06:02 59.8 °F /  15.4 °C 57.5 °F /  14.2 °C 29.76in /  1007.7hPa Calm   1.1mph /  1.8km/h 92% 0.01in /  0.25mm 0.00 W/m2
06:07 59.8 °F /  15.4 °C 57.5 °F /  14.2 °C 29.76in /  1007.7hPa Calm   2.3mph /  3.7km/h 92% 0.02in /  0.51mm 0.00 W/m2
06:12 59.6 °F /  15.3 °C 57.3 °F /  14.1 °C 29.76in /  1007.7hPa NNE 1.1mph /  1.8km/h 3.4mph /  5.5km/h 92% 0.02in /  0.51mm 0.00 W/m2
06:17 59.5 °F /  15.3 °C 57.5 °F /  14.2 °C 29.76in /  1007.7hPa NNE 2.3mph /  3.7km/h 3.4mph /  5.5km/h 93% 0.02in /  0.51mm 0.00 W/m2
06:23 59.6 °F /  15.3 °C 57.6 °F /  14.2 °C 29.76in /  1007.7hPa Calm   3.4mph /  5.5km/h 93% 0.02in /  0.51mm 0.00 W/m2
06:28 59.5 °F /  15.3 °C 57.5 °F /  14.2 °C 29.76in /  1007.7hPa Calm     93% 0.02in /  0.51mm 0.00 W/m2
06:33 59.5 °F /  15.3 °C 57.5 °F /  14.2 °C 29.76in /  1007.7hPa Calm     93% 0.02in /  0.51mm 0.00 W/m2
06:38 59.5 °F /  15.3 °C 57.5 °F /  14.2 °C 29.76in /  1007.7hPa Calm     93% 0.02in /  0.51mm 0.00 W/m2
06:43 59.5 °F /  15.3 °C 57.8 °F /  14.3 °C 29.76in /  1007.7hPa Calm     94% 0.02in /  0.51mm 5.00 W/m2
06:48 59.6 °F /  15.3 °C 57.9 °F /  14.4 °C 29.76in /  1007.7hPa Calm     94% 0.02in /  0.51mm 7.00 W/m2
06:53 59.6 °F /  15.3 °C 57.9 °F /  14.4 °C 29.77in /  1008hPa NNE 1.1mph /  1.8km/h 1.1mph /  1.8km/h 94% 0.02in /  0.51mm 11.00 W/m2
06:58 59.6 °F /  15.3 °C 57.9 °F /  14.4 °C 29.77in /  1008hPa Calm   3.4mph /  5.5km/h 94% 0.02in /  0.51mm 14.00 W/m2
07:04 59.6 °F /  15.3 °C 57.9 °F /  14.4 °C 29.77in /  1008hPa NNE 2.3mph /  3.7km/h 3.4mph /  5.5km/h 94% 0.02in /  0.51mm 12.00 W/m2
07:09 59.6 °F /  15.3 °C 57.9 °F /  14.4 °C 29.77in /  1008hPa NE 5.8mph /  9.3km/h 5.8mph /  9.3km/h 94% 0.02in /  0.51mm 14.00 W/m2
07:10 59.6 °F /  15.3 °C 57.9 °F /  14.4 °C 29.77in /  1008hPa NE 1.1mph /  1.8km/h 5.8mph /  9.3km/h 94% 0.02in /  0.51mm 14.00 W/m2
07:15 59.6 °F /  15.3 °C 57.9 °F /  14.4 °C 29.77in /  1008hPa Calm   5.8mph /  9.3km/h 94% 0.02in /  0.51mm 14.00 W/m2
07:20 59.6 °F /  15.3 °C 57.9 °F /  14.4 °C 29.77in /  1008hPa Calm   5.8mph /  9.3km/h 94% 0.02in /  0.51mm 21.00 W/m2
07:25 59.8 °F /  15.4 °C 58.1 °F /  14.5 °C 29.76in /  1007.7hPa NE 3.4mph /  5.5km/h 3.4mph /  5.5km/h 94% 0.02in /  0.51mm 42.00 W/m2
07:30 60.0 °F /  15.6 °C 58.3 °F /  14.6 °C 29.77in /  1008hPa Calm   3.4mph /  5.5km/h 94% 0.02in /  0.51mm 62.00 W/m2
07:35 60.1 °F /  15.6 °C 58.4 °F /  14.7 °C 29.77in /  1008hPa Calm   1.1mph /  1.8km/h 94% 0.02in /  0.51mm 62.00 W/m2
07:41 60.3 °F /  15.7 °C 58.6 °F /  14.8 °C 29.77in /  1008hPa Calm   5.8mph /  9.3km/h 94% 0.02in /  0.51mm 39.00 W/m2
07:46 60.3 °F /  15.7 °C 58.6 °F /  14.8 °C 29.78in /  1008.4hPa NE 2.3mph /  3.7km/h 3.4mph /  5.5km/h 94% 0.01in /  0.25mm 37.00 W/m2
07:51 60.3 °F /  15.7 °C 58.6 °F /  14.8 °C 29.78in /  1008.4hPa NE 1.1mph /  1.8km/h 3.4mph /  5.5km/h 94% 0.01in /  0.25mm 54.00 W/m2
07:56 60.5 °F /  15.8 °C 58.8 °F /  14.9 °C 29.77in /  1008hPa Calm   2.3mph /  3.7km/h 94% 0.01in /  0.25mm 84.00 W/m2
08:01 60.8 °F /  16 °C 59.1 °F /  15.1 °C 29.77in /  1008hPa Calm   2.3mph /  3.7km/h 94% 0.01in /  0.25mm 86.00 W/m2
08:06 61.3 °F /  16.3 °C 59.9 °F /  15.5 °C 29.77in /  1008hPa NE 2.3mph /  3.7km/h 3.4mph /  5.5km/h 95% 0.01in /  0.25mm 90.00 W/m2
08:11 61.5 °F /  16.4 °C 59.8 °F /  15.4 °C 29.77in /  1008hPa NE 1.1mph /  1.8km/h 2.3mph /  3.7km/h 94% 0.00in /  0mm 163.00 W/m2
08:16 61.9 °F /  16.6 °C 60.2 °F /  15.7 °C 29.77in /  1008hPa NE 1.1mph /  1.8km/h 2.3mph /  3.7km/h 94% 0.00in /  0mm 169.00 W/m2
08:21 62.1 °F /  16.7 °C 60.4 °F /  15.8 °C 29.78in /  1008.4hPa NE 3.4mph /  5.5km/h 6.9mph /  11.1km/h 94% 0.00in /  0mm 141.00 W/m2
08:26 62.2 °F /  16.8 °C 60.5 °F /  15.8 °C 29.78in /  1008.4hPa Calm   5.8mph /  9.3km/h 94% 0.00in /  0mm 114.00 W/m2
08:31 62.4 °F /  16.9 °C 60.7 °F /  15.9 °C 29.77in /  1008hPa Calm   4.6mph /  7.4km/h 94% 0.00in /  0mm 142.00 W/m2
08:36 62.6 °F /  17 °C 60.8 °F /  16 °C 29.77in /  1008hPa NE 3.4mph /  5.5km/h 4.6mph /  7.4km/h 94% 0.00in /  0mm 121.00 W/m2
08:41 62.7 °F /  17.1 °C 61.0 °F /  16.1 °C 29.77in /  1008hPa NE 4.6mph /  7.4km/h 4.6mph /  7.4km/h 94% 0.00in /  0mm 151.00 W/m2
08:46 62.9 °F /  17.2 °C 60.8 °F /  16 °C 29.77in /  1008hPa Calm     93% 0.00in /  0mm 185.00 W/m2
08:51 63.4 °F /  17.4 °C 61.7 °F /  16.5 °C 29.77in /  1008hPa Calm     94% 0.00in /  0mm 169.00 W/m2
08:56 63.3 °F /  17.4 °C 61.2 °F /  16.2 °C 29.78in /  1008.4hPa Calm   2.3mph /  3.7km/h 93% 0.00in /  0mm 125.00 W/m2
09:01 63.4 °F /  17.4 °C 61.0 °F /  16.1 °C 29.78in /  1008.4hPa ENE 2.3mph /  3.7km/h 3.4mph /  5.5km/h 92% 0.00in /  0mm 128.00 W/m2
09:06 63.4 °F /  17.4 °C 60.7 °F /  15.9 °C 29.77in /  1008hPa ENE 1.1mph /  1.8km/h 2.3mph /  3.7km/h 91% 0.00in /  0mm 167.00 W/m2
09:11 63.8 °F /  17.7 °C 61.4 °F /  16.3 °C 29.77in /  1008hPa Calm   2.3mph /  3.7km/h 92% 0.00in /  0mm 204.00 W/m2
09:17 63.8 °F /  17.7 °C 61.1 °F /  16.2 °C 29.77in /  1008hPa Calm   2.3mph /  3.7km/h 91% 0.00in /  0mm 179.00 W/m2
09:22 63.7 °F /  17.6 °C 60.7 °F /  15.9 °C 29.77in /  1008hPa Calm   1.1mph /  1.8km/h 90% 0.00in /  0mm 171.00 W/m2
09:27 63.9 °F /  17.7 °C 61.2 °F /  16.2 °C 29.77in /  1008hPa East 1.1mph /  1.8km/h 6.9mph /  11.1km/h 91% 0.02in /  0.51mm 199.00 W/m2
09:32 63.7 °F /  17.6 °C 61.3 °F /  16.3 °C 29.77in /  1008hPa East 2.3mph /  3.7km/h 2.3mph /  3.7km/h 92% 0.02in /  0.51mm 279.00 W/m2
09:37 63.8 °F /  17.7 °C 61.4 °F /  16.3 °C 29.77in /  1008hPa East 2.3mph /  3.7km/h 2.3mph /  3.7km/h 92% 0.03in /  0.76mm 229.00 W/m2
09:42 64.0 °F /  17.8 °C 61.6 °F /  16.4 °C 29.77in /  1008hPa Calm     92% 0.03in /  0.76mm 287.00 W/m2
09:47 64.7 °F /  18.2 °C 62.6 °F /  17 °C 29.77in /  1008hPa ENE 5.8mph /  9.3km/h 5.8mph /  9.3km/h 93% 0.03in /  0.76mm 392.00 W/m2
09:52 64.8 °F /  18.2 °C 61.8 °F /  16.6 °C 29.76in /  1007.7hPa East 2.3mph /  3.7km/h 5.8mph /  9.3km/h 90% 0.03in /  0.76mm 237.00 W/m2
09:57 64.9 °F /  18.3 °C 62.2 °F /  16.8 °C 29.76in /  1007.7hPa East 1.1mph /  1.8km/h 2.3mph /  3.7km/h 91% 0.03in /  0.76mm 248.00 W/m2
10:02 65.0 °F /  18.3 °C 62.0 °F /  16.7 °C 29.76in /  1007.7hPa Calm   1.1mph /  1.8km/h 90% 0.03in /  0.76mm 397.00 W/m2
10:07 65.2 °F /  18.4 °C 62.2 °F /  16.8 °C 29.76in /  1007.7hPa Calm   3.4mph /  5.5km/h 90% 0.03in /  0.76mm 227.00 W/m2
10:13 65.3 °F /  18.5 °C 62.6 °F /  17 °C 29.76in /  1007.7hPa ESE 1.1mph /  1.8km/h 3.4mph /  5.5km/h 91% 0.03in /  0.76mm 223.00 W/m2
10:18 65.4 °F /  18.6 °C 62.4 °F /  16.9 °C 29.76in /  1007.7hPa ESE 1.1mph /  1.8km/h 4.6mph /  7.4km/h 90% 0.03in /  0.76mm 253.00 W/m2
10:23 65.3 °F /  18.5 °C 62.3 °F /  16.8 °C 29.76in /  1007.7hPa Calm   2.3mph /  3.7km/h 90% 0.03in /  0.76mm 265.00 W/m2
10:28 65.4 °F /  18.6 °C 62.1 °F /  16.7 °C 29.76in /  1007.7hPa SE 4.6mph /  7.4km/h 4.6mph /  7.4km/h 89% 0.02in /  0.51mm 350.00 W/m2
10:33 65.4 °F /  18.6 °C 62.4 °F /  16.9 °C 29.76in /  1007.7hPa Calm   3.4mph /  5.5km/h 90% 0.01in /  0.25mm 301.00 W/m2
10:38 65.7 °F /  18.7 °C 62.4 °F /  16.9 °C 29.76in /  1007.7hPa ESE 3.4mph /  5.5km/h 5.8mph /  9.3km/h 89% 0.01in /  0.25mm 341.00 W/m2
10:43 66.1 °F /  18.9 °C 63.1 °F /  17.3 °C 29.76in /  1007.7hPa ESE 2.3mph /  3.7km/h 4.6mph /  7.4km/h 90% 0.00in /  0mm 220.00 W/m2
10:48 65.8 °F /  18.8 °C 62.2 °F /  16.8 °C 29.76in /  1007.7hPa ESE 2.3mph /  3.7km/h 2.3mph /  3.7km/h 88% 0.00in /  0mm 220.00 W/m2
10:53 65.6 °F /  18.7 °C 62.0 °F /  16.7 °C 29.76in /  1007.7hPa Calm   2.3mph /  3.7km/h 88% 0.00in /  0mm 260.00 W/m2
10:59 65.7 °F /  18.7 °C 62.0 °F /  16.7 °C 29.76in /  1007.7hPa ESE 2.3mph /  3.7km/h 3.4mph /  5.5km/h 88% 0.00in /  0mm 213.00 W/m2
11:04 65.8 °F /  18.8 °C 62.2 °F /  16.8 °C 29.76in /  1007.7hPa Calm   3.4mph /  5.5km/h 88% 0.00in /  0mm 141.00 W/m2
11:09 65.6 °F /  18.7 °C 62.3 °F /  16.8 °C 29.76in /  1007.7hPa ESE 3.4mph /  5.5km/h 4.6mph /  7.4km/h 89% 0.00in /  0mm 141.00 W/m2
11:14 65.3 °F /  18.5 °C 61.7 °F /  16.5 °C 29.76in /  1007.7hPa ESE 1.1mph /  1.8km/h 4.6mph /  7.4km/h 88% 0.00in /  0mm 144.00 W/m2
11:19 65.3 °F /  18.5 °C 61.7 °F /  16.5 °C 29.76in /  1007.7hPa Calm     88% 0.00in /  0mm 139.00 W/m2
11:24 65.3 °F /  18.5 °C 62.0 °F /  16.7 °C 29.76in /  1007.7hPa ESE 3.4mph /  5.5km/h 4.6mph /  7.4km/h 89% 0.00in /  0mm 113.00 W/m2
11:29 65.3 °F /  18.5 °C 62.0 °F /  16.7 °C 29.76in /  1007.7hPa ESE 1.1mph /  1.8km/h 2.3mph /  3.7km/h 89% 0.00in /  0mm 197.00 W/m2
11:34 65.7 °F /  18.7 °C 62.4 °F /  16.9 °C 29.76in /  1007.7hPa Calm   3.4mph /  5.5km/h 89% 0.00in /  0mm 295.00 W/m2
11:39 66.0 °F /  18.9 °C 62.7 °F /  17.1 °C 29.75in /  1007.3hPa ESE 3.4mph /  5.5km/h 3.4mph /  5.5km/h 89% 0.00in /  0mm 258.00 W/m2
11:44 66.3 °F /  19.1 °C 62.6 °F /  17 °C 29.76in /  1007.7hPa Calm   2.3mph /  3.7km/h 88% 0.00in /  0mm 200.00 W/m2
11:49 66.2 °F /  19 °C 62.5 °F /  16.9 °C 29.75in /  1007.3hPa Calm   3.4mph /  5.5km/h 88% 0.00in /  0mm 401.00 W/m2
11:54 66.1 °F /  18.9 °C 62.5 °F /  16.9 °C 29.75in /  1007.3hPa Calm   3.4mph /  5.5km/h 88% 0.00in /  0mm 295.00 W/m2
12:00 66.6 °F /  19.2 °C 62.6 °F /  17 °C 29.75in /  1007.3hPa Calm   2.3mph /  3.7km/h 87% 0.00in /  0mm 257.00 W/m2
12:05 66.8 °F /  19.3 °C 63.1 °F /  17.3 °C 29.75in /  1007.3hPa Calm   2.3mph /  3.7km/h 88% 0.00in /  0mm 188.00 W/m2
12:10 66.4 °F /  19.1 °C 62.4 °F /  16.9 °C 29.75in /  1007.3hPa Calm     87% 0.00in /  0mm 202.00 W/m2
12:15 66.6 °F /  19.2 °C 62.9 °F /  17.2 °C 29.75in /  1007.3hPa Calm     88% 0.00in /  0mm 220.00 W/m2
12:20 66.8 °F /  19.3 °C 63.1 °F /  17.3 °C 29.75in /  1007.3hPa ESE 2.3mph /  3.7km/h 2.3mph /  3.7km/h 88% 0.00in /  0mm 250.00 W/m2
12:25 66.8 °F /  19.3 °C 62.8 °F /  17.1 °C 29.75in /  1007.3hPa Calm   2.3mph /  3.7km/h 87% 0.00in /  0mm 188.00 W/m2
12:30 66.5 °F /  19.2 °C 62.2 °F /  16.8 °C 29.75in /  1007.3hPa Calm     86% 0.00in /  0mm 165.00 W/m2
12:35 66.7 °F /  19.3 °C 63.0 °F /  17.2 °C 29.74in /  1007hPa Calm     88% 0.00in /  0mm 274.00 W/m2
12:40 67.1 °F /  19.5 °C 63.1 °F /  17.3 °C 29.74in /  1007hPa Calm   4.6mph /  7.4km/h 87% 0.00in /  0mm 207.00 W/m2
12:45 67.1 °F /  19.5 °C 63.4 °F /  17.4 °C 29.74in /  1007hPa Calm   1.1mph /  1.8km/h 88% 0.00in /  0mm 135.00 W/m2
12:51 66.8 °F /  19.3 °C 63.1 °F /  17.3 °C 29.74in /  1007hPa ENE 2.3mph /  3.7km/h 4.6mph /  7.4km/h 88% 0.00in /  0mm 111.00 W/m2
12:56 66.7 °F /  19.3 °C 62.7 °F /  17.1 °C 29.74in /  1007hPa ENE 2.3mph /  3.7km/h 3.4mph /  5.5km/h 87% 0.00in /  0mm 105.00 W/m2
13:01 66.7 °F /  19.3 °C 63.0 °F /  17.2 °C 29.74in /  1007hPa ENE 3.4mph /  5.5km/h 3.4mph /  5.5km/h 88% 0.00in /  0mm 90.00 W/m2
13:06 66.8 °F /  19.3 °C 63.1 °F /  17.3 °C 29.74in /  1007hPa Calm   2.3mph /  3.7km/h 88% 0.00in /  0mm 125.00 W/m2
13:11 66.9 °F /  19.4 °C 63.2 °F /  17.3 °C 29.74in /  1007hPa Calm   5.8mph /  9.3km/h 88% 0.00in /  0mm 130.00 W/m2
13:16 66.9 °F /  19.4 °C 62.9 °F /  17.2 °C 29.74in /  1007hPa Calm   1.1mph /  1.8km/h 87% 0.00in /  0mm 102.00 W/m2
13:21 66.8 °F /  19.3 °C 63.1 °F /  17.3 °C 29.74in /  1007hPa Calm   2.3mph /  3.7km/h 88% 0.00in /  0mm 83.00 W/m2
13:26 66.6 °F /  19.2 °C 62.9 °F /  17.2 °C 29.74in /  1007hPa ENE 2.3mph /  3.7km/h 4.6mph /  7.4km/h 88% 0.00in /  0mm 70.00 W/m2
13:31 66.6 °F /  19.2 °C 62.9 °F /  17.2 °C 29.74in /  1007hPa Calm   4.6mph /  7.4km/h 88% 0.00in /  0mm 69.00 W/m2
13:36 66.6 °F /  19.2 °C 62.9 °F /  17.2 °C 29.73in /  1006.7hPa Calm   2.3mph /  3.7km/h 88% 0.00in /  0mm 56.00 W/m2
13:41 66.5 °F /  19.2 °C 62.8 °F /  17.1 °C 29.74in /  1007hPa ESE 5.8mph /  9.3km/h 8.1mph /  13km/h 88% 0.00in /  0mm 53.00 W/m2
13:46 66.5 °F /  19.2 °C 62.8 °F /  17.1 °C 29.74in /  1007hPa ESE 1.1mph /  1.8km/h 9.2mph /  14.8km/h 88% 0.00in /  0mm 53.00 W/m2
13:51 66.4 °F /  19.1 °C 62.7 °F /  17.1 °C 29.73in /  1006.7hPa ESE 5.8mph /  9.3km/h 5.8mph /  9.3km/h 88% 0.00in /  0mm 49.00 W/m2
13:56 66.1 °F /  18.9 °C 62.8 °F /  17.1 °C 29.74in /  1007hPa SE 1.1mph /  1.8km/h 6.9mph /  11.1km/h 89% 0.00in /  0mm 54.00 W/m2
14:01 65.8 °F /  18.8 °C 62.5 °F /  16.9 °C 29.74in /  1007hPa SE 5.8mph /  9.3km/h 8.1mph /  13km/h 89% 0.00in /  0mm 56.00 W/m2
14:06 65.6 °F /  18.7 °C 62.3 °F /  16.8 °C 29.74in /  1007hPa SE 1.1mph /  1.8km/h 2.3mph /  3.7km/h 89% 0.00in /  0mm 46.00 W/m2
14:11 65.4 °F /  18.6 °C 62.4 °F /  16.9 °C 29.74in /  1007hPa ESE 1.1mph /  1.8km/h 1.1mph /  1.8km/h 90% 0.00in /  0mm 44.00 W/m2
14:16 65.3 °F /  18.5 °C 62.3 °F /  16.8 °C 29.74in /  1007hPa ESE 1.1mph /  1.8km/h 2.3mph /  3.7km/h 90% 0.00in /  0mm 47.00 W/m2
14:21 65.2 °F /  18.4 °C 62.2 °F /  16.8 °C 29.74in /  1007hPa ESE 3.4mph /  5.5km/h 8.1mph /  13km/h 90% 0.00in /  0mm 54.00 W/m2
14:26 65.1 °F /  18.4 °C 62.4 °F /  16.9 °C 29.74in /  1007hPa ESE 2.3mph /  3.7km/h 5.8mph /  9.3km/h 91% 0.00in /  0mm 53.00 W/m2
14:31 65.0 °F /  18.3 °C 62.3 °F /  16.8 °C 29.74in /  1007hPa ESE 2.3mph /  3.7km/h 8.1mph /  13km/h 91% 0.00in /  0mm 51.00 W/m2
14:36 64.9 °F /  18.3 °C 62.2 °F /  16.8 °C 29.74in /  1007hPa Calm   4.6mph /  7.4km/h 91% 0.00in /  0mm 54.00 W/m2
14:41 64.8 °F /  18.2 °C 62.1 °F /  16.7 °C 29.74in /  1007hPa SE 1.1mph /  1.8km/h 5.8mph /  9.3km/h 91% 0.00in /  0mm 62.00 W/m2
14:46 64.7 °F /  18.2 °C 62.3 °F /  16.8 °C 29.74in /  1007hPa Calm     92% 0.00in /  0mm 65.00 W/m2
14:51 64.7 °F /  18.2 °C 62.3 °F /  16.8 °C 29.74in /  1007hPa SE 4.6mph /  7.4km/h 4.6mph /  7.4km/h 92% 0.00in /  0mm 81.00 W/m2
14:57 64.7 °F /  18.2 °C 62.3 °F /  16.8 °C 29.74in /  1007hPa SE 1.1mph /  1.8km/h 3.4mph /  5.5km/h 92% 0.00in /  0mm 102.00 W/m2
15:02 64.6 °F /  18.1 °C 62.5 °F /  16.9 °C 29.74in /  1007hPa Calm   3.4mph /  5.5km/h 93% 0.00in /  0mm 95.00 W/m2
15:07 64.7 °F /  18.2 °C 62.6 °F /  17 °C 29.73in /  1006.7hPa Calm     93% 0.00in /  0mm 97.00 W/m2
15:12 64.7 °F /  18.2 °C 62.6 °F /  17 °C 29.74in /  1007hPa Calm   1.1mph /  1.8km/h 93% 0.00in /  0mm 90.00 W/m2
15:17 64.8 °F /  18.2 °C 62.7 °F /  17.1 °C 29.74in /  1007hPa SE 5.8mph /  9.3km/h 5.8mph /  9.3km/h 93% 0.00in /  0mm 130.00 W/m2
15:22 64.7 °F /  18.2 °C 62.6 °F /  17 °C 29.74in /  1007hPa Calm     93% 0.00in /  0mm 123.00 W/m2
15:27 64.6 °F /  18.1 °C 62.5 °F /  16.9 °C 29.74in /  1007hPa SSE 1.1mph /  1.8km/h 2.3mph /  3.7km/h 93% 0.00in /  0mm 123.00 W/m2
15:32 64.8 °F /  18.2 °C 63.0 °F /  17.2 °C 29.73in /  1006.7hPa SSE 2.3mph /  3.7km/h 4.6mph /  7.4km/h 94% 0.00in /  0mm 98.00 W/m2
15:37 64.8 °F /  18.2 °C 63.0 °F /  17.2 °C 29.73in /  1006.7hPa Calm   3.4mph /  5.5km/h 94% 0.00in /  0mm 183.00 W/m2
15:42 64.9 °F /  18.3 °C 62.8 °F /  17.1 °C 29.74in /  1007hPa Calm     93% 0.00in /  0mm 186.00 W/m2
15:48 65.0 °F /  18.3 °C 62.6 °F /  17 °C 29.74in /  1007hPa Calm   1.1mph /  1.8km/h 92% 0.00in /  0mm 144.00 W/m2
15:53 65.3 °F /  18.5 °C 62.9 °F /  17.2 °C 29.74in /  1007hPa Calm     92% 0.00in /  0mm 188.00 W/m2
15:58 65.6 °F /  18.7 °C 63.2 °F /  17.3 °C 29.74in /  1007hPa Calm     92% 0.00in /  0mm 174.00 W/m2
16:03 65.8 °F /  18.8 °C 62.8 °F /  17.1 °C 29.74in /  1007hPa Calm     90% 0.00in /  0mm 142.00 W/m2
16:08 65.8 °F /  18.8 °C 62.8 °F /  17.1 °C 29.74in /  1007hPa SSE 2.3mph /  3.7km/h 2.3mph /  3.7km/h 90% 0.00in /  0mm 121.00 W/m2
16:13 65.9 °F /  18.8 °C 62.9 °F /  17.2 °C 29.74in /  1007hPa Calm     90% 0.00in /  0mm 120.00 W/m2
16:18 65.8 °F /  18.8 °C 62.5 °F /  16.9 °C 29.74in /  1007hPa Calm   2.3mph /  3.7km/h 89% 0.00in /  0mm 125.00 W/m2
16:23 65.9 °F /  18.8 °C 62.9 °F /  17.2 °C 29.74in /  1007hPa SSE 2.3mph /  3.7km/h 2.3mph /  3.7km/h 90% 0.00in /  0mm 121.00 W/m2
16:28 66.0 °F /  18.9 °C 62.7 °F /  17.1 °C 29.74in /  1007hPa Calm     89% 0.00in /  0mm 91.00 W/m2
16:33 66.1 °F /  18.9 °C 62.8 °F /  17.1 °C 29.74in /  1007hPa Calm     89% 0.00in /  0mm 91.00 W/m2
16:38 66.1 °F /  18.9 °C 62.8 °F /  17.1 °C 29.74in /  1007hPa Calm     89% 0.00in /  0mm 91.00 W/m2
16:43 66.3 °F /  19.1 °C 63.3 °F /  17.4 °C 29.74in /  1007hPa Calm   2.3mph /  3.7km/h 90% 0.00in /  0mm 86.00 W/m2
16:48 66.2 °F /  19 °C 63.2 °F /  17.3 °C 29.74in /  1007hPa Calm     90% 0.00in /  0mm 86.00 W/m2
16:54 66.4 °F /  19.1 °C 63.4 °F /  17.4 °C 29.74in /  1007hPa Calm     90% 0.00in /  0mm 93.00 W/m2
16:59 66.4 °F /  19.1 °C 62.7 °F /  17.1 °C 29.74in /  1007hPa Calm     88% 0.00in /  0mm 74.00 W/m2
17:04 66.3 °F /  19.1 °C 63.0 °F /  17.2 °C 29.74in /  1007hPa Calm     89% 0.00in /  0mm 79.00 W/m2
17:09 66.2 °F /  19 °C 62.9 °F /  17.2 °C 29.74in /  1007hPa Calm     89% 0.00in /  0mm 83.00 W/m2
17:14 66.5 °F /  19.2 °C 63.2 °F /  17.3 °C 29.74in /  1007hPa Calm     89% 0.00in /  0mm 74.00 W/m2
17:19 66.5 °F /  19.2 °C 63.2 °F /  17.3 °C 29.74in /  1007hPa SSE 1.1mph /  1.8km/h 2.3mph /  3.7km/h 89% 0.00in /  0mm 62.00 W/m2
17:24 66.3 °F /  19.1 °C 63.0 °F /  17.2 °C 29.74in /  1007hPa Calm     89% 0.00in /  0mm 56.00 W/m2
17:29 66.3 °F /  19.1 °C 63.0 °F /  17.2 °C 29.74in /  1007hPa Calm     89% 0.00in /  0mm 62.00 W/m2
17:34 66.3 °F /  19.1 °C 63.3 °F /  17.4 °C 29.74in /  1007hPa Calm     90% 0.00in /  0mm 62.00 W/m2
17:39 66.4 °F /  19.1 °C 63.4 °F /  17.4 °C 29.75in /  1007.3hPa Calm   1.1mph /  1.8km/h 90% 0.00in /  0mm 51.00 W/m2
17:45 66.4 °F /  19.1 °C 63.1 °F /  17.3 °C 29.74in /  1007hPa Calm   1.1mph /  1.8km/h 89% 0.00in /  0mm 39.00 W/m2
17:50 66.3 °F /  19.1 °C 63.0 °F /  17.2 °C 29.74in /  1007hPa Calm     89% 0.00in /  0mm 42.00 W/m2
17:55 66.3 °F /  19.1 °C 63.3 °F /  17.4 °C 29.74in /  1007hPa Calm     90% 0.00in /  0mm 46.00 W/m2
18:00 66.2 °F /  19 °C 63.2 °F /  17.3 °C 29.74in /  1007hPa Calm     90% 0.00in /  0mm 46.00 W/m2
18:05 66.2 °F /  19 °C 62.9 °F /  17.2 °C 29.75in /  1007.3hPa Calm     89% 0.00in /  0mm 44.00 W/m2
18:10 66.1 °F /  18.9 °C 62.8 °F /  17.1 °C 29.74in /  1007hPa Calm     89% 0.00in /  0mm 42.00 W/m2
18:15 66.1 °F /  18.9 °C 63.1 °F /  17.3 °C 29.74in /  1007hPa Calm     90% 0.00in /  0mm 39.00 W/m2
18:20 66.1 °F /  18.9 °C 63.1 °F /  17.3 °C 29.74in /  1007hPa Calm   1.1mph /  1.8km/h 90% 0.00in /  0mm 39.00 W/m2
18:25 66.1 °F /  18.9 °C 62.8 °F /  17.1 °C 29.74in /  1007hPa Calm     89% 0.00in /  0mm 33.00 W/m2
18:31 66.1 °F /  18.9 °C 63.1 °F /  17.3 °C 29.74in /  1007hPa Calm     90% 0.00in /  0mm 30.00 W/m2
18:36 66.1 °F /  18.9 °C 63.1 °F /  17.3 °C 29.74in /  1007hPa Calm     90% 0.00in /  0mm 25.00 W/m2
18:41 65.9 °F /  18.8 °C 62.9 °F /  17.2 °C 29.74in /  1007hPa Calm     90% 0.00in /  0mm 26.00 W/m2
18:46 65.9 °F /  18.8 °C 62.9 °F /  17.2 °C 29.75in /  1007.3hPa Calm   2.3mph /  3.7km/h 90% 0.00in /  0mm 19.00 W/m2
18:51 65.9 °F /  18.8 °C 62.9 °F /  17.2 °C 29.75in /  1007.3hPa Calm   1.1mph /  1.8km/h 90% 0.00in /  0mm 16.00 W/m2
18:56 65.8 °F /  18.8 °C 62.8 °F /  17.1 °C 29.75in /  1007.3hPa ESE 1.1mph /  1.8km/h 2.3mph /  3.7km/h 90% 0.00in /  0mm 12.00 W/m2
19:01 65.7 °F /  18.7 °C 62.7 °F /  17.1 °C 29.75in /  1007.3hPa ESE 2.3mph /  3.7km/h 3.4mph /  5.5km/h 90% 0.00in /  0mm 7.00 W/m2
19:02 65.7 °F /  18.7 °C 62.7 °F /  17.1 °C 29.75in /  1007.3hPa Calm   2.3mph /  3.7km/h 90% 0.00in /  0mm 7.00 W/m2
19:07 65.6 °F /  18.7 °C 62.9 °F /  17.2 °C 29.75in /  1007.3hPa Calm     91% 0.00in /  0mm 0.00 W/m2
19:12 65.6 °F /  18.7 °C 62.9 °F /  17.2 °C 29.75in /  1007.3hPa Calm     91% 0.00in /  0mm 0.00 W/m2
19:17 65.4 °F /  18.6 °C 62.7 °F /  17.1 °C 29.75in /  1007.3hPa Calm     91% 0.00in /  0mm 0.00 W/m2
19:22 65.4 °F /  18.6 °C 62.7 °F /  17.1 °C 29.75in /  1007.3hPa Calm     91% 0.00in /  0mm 0.00 W/m2
19:27 65.3 °F /  18.5 °C 62.6 °F /  17 °C 29.75in /  1007.3hPa ESE 1.1mph /  1.8km/h 1.1mph /  1.8km/h 91% 0.00in /  0mm 0.00 W/m2
19:32 65.3 °F /  18.5 °C 62.9 °F /  17.2 °C 29.75in /  1007.3hPa Calm     92% 0.00in /  0mm 0.00 W/m2
19:37 65.2 °F /  18.4 °C 62.8 °F /  17.1 °C 29.75in /  1007.3hPa Calm     92% 0.00in /  0mm 0.00 W/m2
19:43 65.3 °F /  18.5 °C 62.9 °F /  17.2 °C 29.75in /  1007.3hPa Calm   3.4mph /  5.5km/h 92% 0.00in /  0mm 0.00 W/m2
19:48 65.3 °F /  18.5 °C 62.9 °F /  17.2 °C 29.76in /  1007.7hPa ESE 1.1mph /  1.8km/h 3.4mph /  5.5km/h 92% 0.00in /  0mm 0.00 W/m2
19:53 65.2 °F /  18.4 °C 62.8 °F /  17.1 °C 29.76in /  1007.7hPa ESE 1.1mph /  1.8km/h 3.4mph /  5.5km/h 92% 0.00in /  0mm 0.00 W/m2
19:58 64.9 °F /  18.3 °C 62.5 °F /  16.9 °C 29.76in /  1007.7hPa ESE 1.1mph /  1.8km/h 2.3mph /  3.7km/h 92% 0.00in /  0mm 0.00 W/m2
20:03 64.7 °F /  18.2 °C 62.3 °F /  16.8 °C 29.76in /  1007.7hPa ESE 2.3mph /  3.7km/h 4.6mph /  7.4km/h 92% 0.00in /  0mm 0.00 W/m2
20:08 64.6 °F /  18.1 °C 61.9 °F /  16.6 °C 29.76in /  1007.7hPa Calm   3.4mph /  5.5km/h 91% 0.00in /  0mm 0.00 W/m2
20:13 64.5 °F /  18.1 °C 61.8 °F /  16.6 °C 29.76in /  1007.7hPa Calm   4.6mph /  7.4km/h 91% 0.00in /  0mm 0.00 W/m2
20:18 64.4 °F /  18 °C 62.0 °F /  16.7 °C 29.77in /  1008hPa Calm   4.6mph /  7.4km/h 92% 0.00in /  0mm 0.00 W/m2
20:23 64.2 °F /  17.9 °C 61.5 °F /  16.4 °C 29.77in /  1008hPa ESE 2.3mph /  3.7km/h 2.3mph /  3.7km/h 91% 0.00in /  0mm 0.00 W/m2
20:29 64.1 °F /  17.8 °C 61.7 °F /  16.5 °C 29.77in /  1008hPa Calm   3.4mph /  5.5km/h 92% 0.00in /  0mm 0.00 W/m2
20:34 64.0 °F /  17.8 °C 61.6 °F /  16.4 °C 29.77in /  1008hPa Calm   2.3mph /  3.7km/h 92% 0.00in /  0mm 0.00 W/m2
20:39 63.9 °F /  17.7 °C 61.5 °F /  16.4 °C 29.77in /  1008hPa Calm   3.4mph /  5.5km/h 92% 0.00in /  0mm 0.00 W/m2
20:44 63.9 °F /  17.7 °C 61.5 °F /  16.4 °C 29.77in /  1008hPa ESE 2.3mph /  3.7km/h 4.6mph /  7.4km/h 92% 0.00in /  0mm 0.00 W/m2
20:49 63.9 °F /  17.7 °C 61.8 °F /  16.6 °C 29.77in /  1008hPa ESE 2.3mph /  3.7km/h 2.3mph /  3.7km/h 93% 0.00in /  0mm 0.00 W/m2
20:54 63.8 °F /  17.7 °C 61.7 °F /  16.5 °C 29.77in /  1008hPa ESE 2.3mph /  3.7km/h 4.6mph /  7.4km/h 93% 0.00in /  0mm 0.00 W/m2
20:59 63.8 °F /  17.7 °C 61.7 °F /  16.5 °C 29.77in /  1008hPa ESE 1.1mph /  1.8km/h 2.3mph /  3.7km/h 93% 0.00in /  0mm 0.00 W/m2
21:04 63.7 °F /  17.6 °C 61.6 °F /  16.4 °C 29.77in /  1008hPa ESE 2.3mph /  3.7km/h 2.3mph /  3.7km/h 93% 0.00in /  0mm 0.00 W/m2
21:09 63.6 °F /  17.6 °C 61.5 °F /  16.4 °C 29.77in /  1008hPa Calm     93% 0.00in /  0mm 0.00 W/m2
21:14 63.5 °F /  17.5 °C 61.4 °F /  16.3 °C 29.78in /  1008.4hPa Calm     93% 0.00in /  0mm 0.00 W/m2
21:19 63.5 °F /  17.5 °C 61.4 °F /  16.3 °C 29.78in /  1008.4hPa Calm     93% 0.00in /  0mm 0.00 W/m2
21:25 63.5 °F /  17.5 °C 61.4 °F /  16.3 °C 29.78in /  1008.4hPa Calm     93% 0.00in /  0mm 0.00 W/m2
21:30 63.4 °F /  17.4 °C 61.3 °F /  16.3 °C 29.78in /  1008.4hPa Calm     93% 0.00in /  0mm 0.00 W/m2
21:35 63.4 °F /  17.4 °C 61.3 °F /  16.3 °C 29.78in /  1008.4hPa Calm     93% 0.00in /  0mm 0.00 W/m2
21:40 63.3 °F /  17.4 °C 61.2 °F /  16.2 °C 29.78in /  1008.4hPa Calm     93% 0.00in /  0mm 0.00 W/m2
21:45 63.3 °F /  17.4 °C 61.2 °F /  16.2 °C 29.78in /  1008.4hPa Calm     93% 0.00in /  0mm 0.00 W/m2
21:50 63.2 °F /  17.3 °C 61.2 °F /  16.2 °C 29.78in /  1008.4hPa Calm     93% 0.00in /  0mm 0.00 W/m2
21:53 63.2 °F /  17.3 °C 61.2 °F /  16.2 °C 29.78in /  1008.4hPa Calm     93% 0.00in /  0mm 0.00 W/m2
21:58 63.2 °F /  17.3 °C 61.2 °F /  16.2 °C 29.78in /  1008.4hPa Calm     93% 0.00in /  0mm 0.00 W/m2
22:03 63.1 °F /  17.3 °C 61.0 °F /  16.1 °C 29.78in /  1008.4hPa Calm     93% 0.00in /  0mm 0.00 W/m2
22:08 63.1 °F /  17.3 °C 61.0 °F /  16.1 °C 29.78in /  1008.4hPa Calm     93% 0.00in /  0mm 0.00 W/m2
22:15 63.0 °F /  17.2 °C 61.0 °F /  16.1 °C 29.78in /  1008.4hPa Calm     93% 0.00in /  0mm 0.00 W/m2
22:19 63.0 °F /  17.2 °C 61.0 °F /  16.1 °C 29.78in /  1008.4hPa Calm     93% 0.00in /  0mm 0.00 W/m2
22:20 63.0 °F /  17.2 °C 61.0 °F /  16.1 °C 29.78in /  1008.4hPa Calm     93% 0.00in /  0mm 0.00 W/m2
22:21 63.0 °F /  17.2 °C 61.0 °F /  16.1 °C 29.78in /  1008.4hPa Calm     93% 0.00in /  0mm 0.00 W/m2
22:25 63.0 °F /  17.2 °C 61.0 °F /  16.1 °C 29.79in /  1008.7hPa Calm     93% 0.00in /  0mm 0.00 W/m2
22:26 63.0 °F /  17.2 °C 61.0 °F /  16.1 °C 29.78in /  1008.4hPa Calm     93% 0.00in /  0mm 0.00 W/m2
22:27 63.0 °F /  17.2 °C 61.0 °F /  16.1 °C 29.78in /  1008.4hPa Calm     93% 0.00in /  0mm 0.00 W/m2
22:29 63.0 °F /  17.2 °C 61.0 °F /  16.1 °C 29.78in /  1008.4hPa Calm     93% 0.00in /  0mm 0.00 W/m2
22:32 63.0 °F /  17.2 °C 61.0 °F /  16.1 °C 29.78in /  1008.4hPa Calm     93% 0.00in /  0mm 0.00 W/m2
22:36 62.9 °F /  17.2 °C 60.8 °F /  16 °C 29.78in /  1008.4hPa Calm     93% 0.00in /  0mm 0.00 W/m2
22:41 62.9 °F /  17.2 °C 61.2 °F /  16.2 °C 29.79in /  1008.7hPa Calm     94% 0.00in /  0mm 0.00 W/m2
22:46 62.9 °F /  17.2 °C 61.2 °F /  16.2 °C 29.79in /  1008.7hPa Calm     94% 0.00in /  0mm 0.00 W/m2
22:52 62.9 °F /  17.2 °C 61.2 °F /  16.2 °C 29.79in /  1008.7hPa Calm     94% 0.00in /  0mm 0.00 W/m2
22:57 62.9 °F /  17.2 °C 61.2 °F /  16.2 °C 29.79in /  1008.7hPa Calm     94% 0.00in /  0mm 0.00 W/m2
23:02 62.7 °F /  17.1 °C 61.0 °F /  16.1 °C 29.78in /  1008.4hPa Calm     94% 0.00in /  0mm 0.00 W/m2
23:07 62.5 °F /  16.9 °C 60.8 °F /  16 °C 29.78in /  1008.4hPa Calm     94% 0.00in /  0mm 0.00 W/m2
23:12 62.3 °F /  16.8 °C 60.6 °F /  15.9 °C 29.79in /  1008.7hPa Calm     94% 0.00in /  0mm 0.00 W/m2
23:17 62.1 °F /  16.7 °C 60.4 °F /  15.8 °C 29.79in /  1008.7hPa Calm     94% 0.00in /  0mm 0.00 W/m2
23:22 61.6 °F /  16.4 °C 59.9 °F /  15.5 °C 29.79in /  1008.7hPa Calm     94% 0.00in /  0mm 0.00 W/m2
23:27 61.2 °F /  16.2 °C 59.5 °F /  15.3 °C 29.79in /  1008.7hPa Calm     94% 0.00in /  0mm 0.00 W/m2
23:33 60.9 °F /  16.1 °C 59.2 °F /  15.1 °C 29.79in /  1008.7hPa Calm     94% 0.00in /  0mm 0.00 W/m2
23:38 60.6 °F /  15.9 °C 58.9 °F /  14.9 °C 29.79in /  1008.7hPa Calm     94% 0.00in /  0mm 0.00 W/m2
23:43 60.3 °F /  15.7 °C 58.9 °F /  14.9 °C 29.79in /  1008.7hPa Calm     95% 0.00in /  0mm 0.00 W/m2
23:48 60.2 °F /  15.7 °C 58.8 °F /  14.9 °C 29.79in /  1008.7hPa Calm     95% 0.00in /  0mm 0.00 W/m2
23:53 60.0 °F /  15.6 °C 58.6 °F /  14.8 °C 29.79in /  1008.7hPa Calm     95% 0.00in /  0mm 0.00 W/m2
23:58 60.1 °F /  15.6 °C 58.7 °F /  14.8 °C 29.79in /  1008.7hPa Calm     95% 0.00in /  0mm 0.00 W/m2
peotoneweather.com
Compliments of Weather Underground - 1.75 mb